sensor_id;sensor_type;location;lat;lon;timestamp;P1;durP1;ratioP1;P2;durP2;ratioP2
5549;SDS011;2798;42.716;23.256;2023-05-07T00:02:12;6.80;;;5.60;;
5549;SDS011;2798;42.716;23.256;2023-05-07T00:04:37;7.63;;;5.87;;
5549;SDS011;2798;42.716;23.256;2023-05-07T00:07:04;5.80;;;5.20;;
5549;SDS011;2798;42.716;23.256;2023-05-07T00:09:29;6.80;;;5.20;;
5549;SDS011;2798;42.716;23.256;2023-05-07T00:11:54;5.83;;;5.17;;
5549;SDS011;2798;42.716;23.256;2023-05-07T00:14:19;5.33;;;4.83;;
5549;SDS011;2798;42.716;23.256;2023-05-07T00:16:45;12.23;;;5.00;;
5549;SDS011;2798;42.716;23.256;2023-05-07T00:19:11;7.03;;;5.07;;
5549;SDS011;2798;42.716;23.256;2023-05-07T00:21:36;5.07;;;4.57;;
5549;SDS011;2798;42.716;23.256;2023-05-07T00:24:01;7.90;;;4.97;;
5549;SDS011;2798;42.716;23.256;2023-05-07T00:26:27;6.00;;;4.70;;
5549;SDS011;2798;42.716;23.256;2023-05-07T00:28:52;8.13;;;4.30;;
5549;SDS011;2798;42.716;23.256;2023-05-07T00:31:17;5.67;;;4.63;;
5549;SDS011;2798;42.716;23.256;2023-05-07T00:33:42;7.03;;;5.10;;
5549;SDS011;2798;42.716;23.256;2023-05-07T00:36:08;8.63;;;5.47;;
5549;SDS011;2798;42.716;23.256;2023-05-07T00:38:33;7.17;;;4.70;;
5549;SDS011;2798;42.716;23.256;2023-05-07T00:40:58;5.93;;;4.70;;
5549;SDS011;2798;42.716;23.256;2023-05-07T00:43:23;6.00;;;4.90;;
5549;SDS011;2798;42.716;23.256;2023-05-07T00:45:49;12.03;;;4.23;;
5549;SDS011;2798;42.716;23.256;2023-05-07T00:48:15;6.77;;;5.23;;
5549;SDS011;2798;42.716;23.256;2023-05-07T00:50:41;5.53;;;4.23;;
5549;SDS011;2798;42.716;23.256;2023-05-07T00:53:06;5.40;;;4.70;;
5549;SDS011;2798;42.716;23.256;2023-05-07T00:55:32;8.40;;;4.77;;
5549;SDS011;2798;42.716;23.256;2023-05-07T00:57:57;6.20;;;4.90;;
5549;SDS011;2798;42.716;23.256;2023-05-07T01:00:23;9.83;;;5.30;;
5549;SDS011;2798;42.716;23.256;2023-05-07T01:02:49;5.27;;;4.77;;
5549;SDS011;2798;42.716;23.256;2023-05-07T01:05:15;8.67;;;5.60;;
5549;SDS011;2798;42.716;23.256;2023-05-07T01:07:42;6.47;;;4.97;;
5549;SDS011;2798;42.716;23.256;2023-05-07T01:10:07;11.30;;;5.87;;
5549;SDS011;2798;42.716;23.256;2023-05-07T01:12:34;6.13;;;5.13;;
5549;SDS011;2798;42.716;23.256;2023-05-07T01:14:59;5.93;;;4.87;;
5549;SDS011;2798;42.716;23.256;2023-05-07T01:17:24;6.53;;;5.20;;
5549;SDS011;2798;42.716;23.256;2023-05-07T01:19:50;8.97;;;4.80;;
5549;SDS011;2798;42.716;23.256;2023-05-07T01:22:17;8.10;;;4.97;;
5549;SDS011;2798;42.716;23.256;2023-05-07T01:24:45;5.87;;;5.27;;
5549;SDS011;2798;42.716;23.256;2023-05-07T01:27:11;7.43;;;4.97;;
5549;SDS011;2798;42.716;23.256;2023-05-07T01:29:36;8.10;;;5.57;;
5549;SDS011;2798;42.716;23.256;2023-05-07T01:32:01;12.37;;;5.30;;
5549;SDS011;2798;42.716;23.256;2023-05-07T01:34:28;8.67;;;5.10;;
5549;SDS011;2798;42.716;23.256;2023-05-07T01:36:55;6.00;;;5.40;;
5549;SDS011;2798;42.716;23.256;2023-05-07T01:39:24;5.10;;;4.50;;
5549;SDS011;2798;42.716;23.256;2023-05-07T01:41:50;6.10;;;4.40;;
5549;SDS011;2798;42.716;23.256;2023-05-07T01:44:15;7.57;;;4.97;;
5549;SDS011;2798;42.716;23.256;2023-05-07T01:46:41;7.80;;;5.10;;
5549;SDS011;2798;42.716;23.256;2023-05-07T01:49:07;5.50;;;4.63;;
5549;SDS011;2798;42.716;23.256;2023-05-07T01:51:32;5.67;;;4.90;;
5549;SDS011;2798;42.716;23.256;2023-05-07T01:53:58;6.10;;;5.37;;
5549;SDS011;2798;42.716;23.256;2023-05-07T01:56:24;5.80;;;5.00;;
5549;SDS011;2798;42.716;23.256;2023-05-07T01:58:49;9.97;;;5.43;;
5549;SDS011;2798;42.716;23.256;2023-05-07T02:01:16;6.40;;;5.60;;
5549;SDS011;2798;42.716;23.256;2023-05-07T02:03:41;6.63;;;5.37;;
5549;SDS011;2798;42.716;23.256;2023-05-07T02:06:06;7.60;;;5.67;;
5549;SDS011;2798;42.716;23.256;2023-05-07T02:08:31;11.33;;;5.97;;
5549;SDS011;2798;42.716;23.256;2023-05-07T02:10:57;8.37;;;6.23;;
5549;SDS011;2798;42.716;23.256;2023-05-07T02:13:22;8.70;;;6.13;;
5549;SDS011;2798;42.716;23.256;2023-05-07T02:15:49;7.90;;;6.23;;
5549;SDS011;2798;42.716;23.256;2023-05-07T02:18:16;9.87;;;5.57;;
5549;SDS011;2798;42.716;23.256;2023-05-07T02:20:41;8.33;;;6.30;;
5549;SDS011;2798;42.716;23.256;2023-05-07T02:23:06;6.43;;;5.73;;
5549;SDS011;2798;42.716;23.256;2023-05-07T02:25:32;7.93;;;5.77;;
5549;SDS011;2798;42.716;23.256;2023-05-07T02:27:57;12.47;;;6.90;;
5549;SDS011;2798;42.716;23.256;2023-05-07T02:30:22;8.40;;;6.23;;
5549;SDS011;2798;42.716;23.256;2023-05-07T02:32:48;7.13;;;5.53;;
5549;SDS011;2798;42.716;23.256;2023-05-07T02:35:13;8.87;;;5.60;;
5549;SDS011;2798;42.716;23.256;2023-05-07T02:37:39;10.17;;;6.70;;
5549;SDS011;2798;42.716;23.256;2023-05-07T02:40:04;14.77;;;7.33;;
5549;SDS011;2798;42.716;23.256;2023-05-07T02:42:30;7.63;;;6.10;;
5549;SDS011;2798;42.716;23.256;2023-05-07T02:44:55;8.00;;;6.43;;
5549;SDS011;2798;42.716;23.256;2023-05-07T02:47:20;14.07;;;6.63;;
5549;SDS011;2798;42.716;23.256;2023-05-07T02:49:46;9.70;;;6.83;;
5549;SDS011;2798;42.716;23.256;2023-05-07T02:52:11;6.97;;;6.20;;
5549;SDS011;2798;42.716;23.256;2023-05-07T02:54:36;8.90;;;6.63;;
5549;SDS011;2798;42.716;23.256;2023-05-07T02:57:01;14.57;;;6.33;;
5549;SDS011;2798;42.716;23.256;2023-05-07T02:59:28;6.77;;;5.60;;
5549;SDS011;2798;42.716;23.256;2023-05-07T03:01:53;9.57;;;5.90;;
5549;SDS011;2798;42.716;23.256;2023-05-07T03:04:18;8.70;;;6.17;;
5549;SDS011;2798;42.716;23.256;2023-05-07T03:06:44;10.27;;;6.63;;
5549;SDS011;2798;42.716;23.256;2023-05-07T03:09:09;9.93;;;6.20;;
5549;SDS011;2798;42.716;23.256;2023-05-07T03:11:34;7.97;;;5.97;;
5549;SDS011;2798;42.716;23.256;2023-05-07T03:14:00;10.93;;;6.07;;
5549;SDS011;2798;42.716;23.256;2023-05-07T03:19:10;18.27;;;6.70;;
5549;SDS011;2798;42.716;23.256;2023-05-07T03:21:35;7.23;;;5.73;;
5549;SDS011;2798;42.716;23.256;2023-05-07T03:24:00;9.10;;;6.40;;
5549;SDS011;2798;42.716;23.256;2023-05-07T03:26:26;8.70;;;5.40;;
5549;SDS011;2798;42.716;23.256;2023-05-07T03:28:51;9.40;;;5.37;;
5549;SDS011;2798;42.716;23.256;2023-05-07T03:31:16;6.47;;;5.43;;
5549;SDS011;2798;42.716;23.256;2023-05-07T03:33:55;8.13;;;6.27;;
5549;SDS011;2798;42.716;23.256;2023-05-07T03:36:21;8.77;;;5.90;;
5549;SDS011;2798;42.716;23.256;2023-05-07T03:38:46;8.40;;;6.73;;
5549;SDS011;2798;42.716;23.256;2023-05-07T03:41:12;10.30;;;6.10;;
5549;SDS011;2798;42.716;23.256;2023-05-07T03:43:37;5.80;;;5.20;;
5549;SDS011;2798;42.716;23.256;2023-05-07T03:46:03;7.13;;;5.50;;
5549;SDS011;2798;42.716;23.256;2023-05-07T03:48:28;7.23;;;6.17;;
5549;SDS011;2798;42.716;23.256;2023-05-07T03:50:53;9.90;;;6.30;;
5549;SDS011;2798;42.716;23.256;2023-05-07T03:53:18;8.90;;;5.83;;
5549;SDS011;2798;42.716;23.256;2023-05-07T03:55:44;8.80;;;6.17;;
5549;SDS011;2798;42.716;23.256;2023-05-07T03:58:09;5.83;;;5.20;;
5549;SDS011;2798;42.716;23.256;2023-05-07T04:00:34;8.70;;;6.00;;
5549;SDS011;2798;42.716;23.256;2023-05-07T04:03:03;8.33;;;5.60;;
5549;SDS011;2798;42.716;23.256;2023-05-07T04:05:29;7.77;;;6.30;;
5549;SDS011;2798;42.716;23.256;2023-05-07T04:07:54;8.30;;;6.63;;
5549;SDS011;2798;42.716;23.256;2023-05-07T04:10:20;8.23;;;5.63;;
5549;SDS011;2798;42.716;23.256;2023-05-07T04:12:45;8.13;;;6.00;;
5549;SDS011;2798;42.716;23.256;2023-05-07T04:15:10;11.37;;;6.20;;
5549;SDS011;2798;42.716;23.256;2023-05-07T04:17:35;13.93;;;6.57;;
5549;SDS011;2798;42.716;23.256;2023-05-07T04:20:01;8.33;;;5.93;;
5549;SDS011;2798;42.716;23.256;2023-05-07T04:22:26;10.20;;;7.00;;
5549;SDS011;2798;42.716;23.256;2023-05-07T04:24:51;11.57;;;6.57;;
5549;SDS011;2798;42.716;23.256;2023-05-07T04:27:16;12.80;;;6.60;;
5549;SDS011;2798;42.716;23.256;2023-05-07T04:29:42;10.03;;;6.40;;
5549;SDS011;2798;42.716;23.256;2023-05-07T04:32:08;8.53;;;6.03;;
5549;SDS011;2798;42.716;23.256;2023-05-07T04:34:34;12.20;;;6.90;;
5549;SDS011;2798;42.716;23.256;2023-05-07T04:36:59;7.87;;;6.40;;
5549;SDS011;2798;42.716;23.256;2023-05-07T04:39:24;7.73;;;6.50;;
5549;SDS011;2798;42.716;23.256;2023-05-07T04:41:50;8.67;;;6.30;;
5549;SDS011;2798;42.716;23.256;2023-05-07T04:44:15;9.37;;;7.30;;
5549;SDS011;2798;42.716;23.256;2023-05-07T04:46:41;12.37;;;6.63;;
5549;SDS011;2798;42.716;23.256;2023-05-07T04:49:07;9.27;;;6.50;;
5549;SDS011;2798;42.716;23.256;2023-05-07T04:51:32;8.83;;;6.77;;
5549;SDS011;2798;42.716;23.256;2023-05-07T04:53:57;8.17;;;6.30;;
5549;SDS011;2798;42.716;23.256;2023-05-07T04:56:23;9.20;;;6.50;;
5549;SDS011;2798;42.716;23.256;2023-05-07T04:58:48;9.30;;;6.20;;
5549;SDS011;2798;42.716;23.256;2023-05-07T05:01:13;8.87;;;6.50;;
5549;SDS011;2798;42.716;23.256;2023-05-07T05:03:38;7.70;;;6.20;;
5549;SDS011;2798;42.716;23.256;2023-05-07T05:06:04;8.07;;;7.00;;
5549;SDS011;2798;42.716;23.256;2023-05-07T05:08:29;11.20;;;6.73;;
5549;SDS011;2798;42.716;23.256;2023-05-07T05:10:55;13.93;;;6.47;;
5549;SDS011;2798;42.716;23.256;2023-05-07T05:13:20;7.00;;;6.30;;
5549;SDS011;2798;42.716;23.256;2023-05-07T05:15:46;7.17;;;6.47;;
5549;SDS011;2798;42.716;23.256;2023-05-07T05:18:11;10.10;;;7.17;;
5549;SDS011;2798;42.716;23.256;2023-05-07T05:20:36;9.40;;;6.90;;
5549;SDS011;2798;42.716;23.256;2023-05-07T05:23:01;10.20;;;7.00;;
5549;SDS011;2798;42.716;23.256;2023-05-07T05:25:27;8.37;;;7.17;;
5549;SDS011;2798;42.716;23.256;2023-05-07T05:27:53;9.20;;;6.90;;
5549;SDS011;2798;42.716;23.256;2023-05-07T05:30:18;8.13;;;6.77;;
5549;SDS011;2798;42.716;23.256;2023-05-07T05:32:43;8.80;;;6.77;;
5549;SDS011;2798;42.716;23.256;2023-05-07T05:35:09;9.83;;;6.63;;
5549;SDS011;2798;42.716;23.256;2023-05-07T05:37:34;9.93;;;6.77;;
5549;SDS011;2798;42.716;23.256;2023-05-07T05:39:59;12.30;;;7.23;;
5549;SDS011;2798;42.716;23.256;2023-05-07T05:42:25;10.37;;;7.60;;
5549;SDS011;2798;42.716;23.256;2023-05-07T05:44:50;9.33;;;6.90;;
5549;SDS011;2798;42.716;23.256;2023-05-07T05:47:15;11.27;;;7.33;;
5549;SDS011;2798;42.716;23.256;2023-05-07T05:49:40;9.50;;;7.17;;
5549;SDS011;2798;42.716;23.256;2023-05-07T05:52:08;14.83;;;7.67;;
5549;SDS011;2798;42.716;23.256;2023-05-07T05:54:33;9.03;;;7.70;;
5549;SDS011;2798;42.716;23.256;2023-05-07T05:56:58;8.63;;;7.40;;
5549;SDS011;2798;42.716;23.256;2023-05-07T05:59:23;10.67;;;8.00;;
5549;SDS011;2798;42.716;23.256;2023-05-07T06:01:49;9.70;;;7.63;;
5549;SDS011;2798;42.716;23.256;2023-05-07T06:04:14;8.70;;;7.67;;
5549;SDS011;2798;42.716;23.256;2023-05-07T06:06:40;12.53;;;8.90;;
5549;SDS011;2798;42.716;23.256;2023-05-07T06:09:05;11.03;;;8.00;;
5549;SDS011;2798;42.716;23.256;2023-05-07T06:11:31;17.40;;;8.20;;
5549;SDS011;2798;42.716;23.256;2023-05-07T06:13:56;13.47;;;9.23;;
5549;SDS011;2798;42.716;23.256;2023-05-07T06:16:21;11.20;;;8.17;;
5549;SDS011;2798;42.716;23.256;2023-05-07T06:18:46;14.70;;;10.13;;
5549;SDS011;2798;42.716;23.256;2023-05-07T06:21:13;11.30;;;9.10;;
5549;SDS011;2798;42.716;23.256;2023-05-07T06:23:38;14.00;;;9.50;;
5549;SDS011;2798;42.716;23.256;2023-05-07T06:26:05;13.40;;;9.00;;
5549;SDS011;2798;42.716;23.256;2023-05-07T06:28:31;13.40;;;9.50;;
5549;SDS011;2798;42.716;23.256;2023-05-07T06:33:37;10.07;;;8.67;;
5549;SDS011;2798;42.716;23.256;2023-05-07T06:36:03;10.90;;;8.67;;
5549;SDS011;2798;42.716;23.256;2023-05-07T06:38:28;14.00;;;8.60;;
5549;SDS011;2798;42.716;23.256;2023-05-07T06:40:53;9.80;;;8.60;;
5549;SDS011;2798;42.716;23.256;2023-05-07T06:43:20;12.50;;;8.73;;
5549;SDS011;2798;42.716;23.256;2023-05-07T06:45:46;12.40;;;8.60;;
5549;SDS011;2798;42.716;23.256;2023-05-07T06:48:11;13.33;;;8.87;;
5549;SDS011;2798;42.716;23.256;2023-05-07T06:50:36;11.03;;;9.47;;
5549;SDS011;2798;42.716;23.256;2023-05-07T06:53:01;12.73;;;9.23;;
5549;SDS011;2798;42.716;23.256;2023-05-07T06:55:27;14.27;;;9.23;;
5549;SDS011;2798;42.716;23.256;2023-05-07T06:57:52;12.53;;;8.97;;
5549;SDS011;2798;42.716;23.256;2023-05-07T07:00:17;14.87;;;9.00;;
5549;SDS011;2798;42.716;23.256;2023-05-07T07:02:43;13.50;;;9.10;;
5549;SDS011;2798;42.716;23.256;2023-05-07T07:05:08;11.00;;;7.90;;
5549;SDS011;2798;42.716;23.256;2023-05-07T07:07:33;17.47;;;8.30;;
5549;SDS011;2798;42.716;23.256;2023-05-07T07:09:59;11.33;;;7.90;;
5549;SDS011;2798;42.716;23.256;2023-05-07T07:12:24;9.73;;;8.43;;
5549;SDS011;2798;42.716;23.256;2023-05-07T07:14:51;11.20;;;8.50;;
5549;SDS011;2798;42.716;23.256;2023-05-07T07:17:16;13.57;;;8.33;;
5549;SDS011;2798;42.716;23.256;2023-05-07T07:19:41;10.67;;;8.37;;
5549;SDS011;2798;42.716;23.256;2023-05-07T07:22:06;10.13;;;8.70;;
5549;SDS011;2798;42.716;23.256;2023-05-07T07:24:32;10.33;;;7.93;;
5549;SDS011;2798;42.716;23.256;2023-05-07T07:26:57;15.93;;;8.70;;
5549;SDS011;2798;42.716;23.256;2023-05-07T07:29:22;9.53;;;8.13;;
5549;SDS011;2798;42.716;23.256;2023-05-07T07:31:48;10.20;;;8.60;;
5549;SDS011;2798;42.716;23.256;2023-05-07T07:34:16;12.17;;;7.87;;
5549;SDS011;2798;42.716;23.256;2023-05-07T07:36:41;12.17;;;7.67;;
5549;SDS011;2798;42.716;23.256;2023-05-07T07:39:06;16.73;;;8.27;;
5549;SDS011;2798;42.716;23.256;2023-05-07T07:41:32;13.43;;;8.37;;
5549;SDS011;2798;42.716;23.256;2023-05-07T07:43:57;10.03;;;7.53;;
5549;SDS011;2798;42.716;23.256;2023-05-07T07:46:22;8.17;;;7.10;;
5549;SDS011;2798;42.716;23.256;2023-05-07T07:48:48;11.53;;;7.27;;
5549;SDS011;2798;42.716;23.256;2023-05-07T07:51:13;10.53;;;7.90;;
5549;SDS011;2798;42.716;23.256;2023-05-07T07:56:22;8.00;;;6.80;;
5549;SDS011;2798;42.716;23.256;2023-05-07T07:58:48;8.90;;;6.33;;
5549;SDS011;2798;42.716;23.256;2023-05-07T08:01:13;8.20;;;6.57;;
5549;SDS011;2798;42.716;23.256;2023-05-07T08:03:38;7.83;;;6.00;;
5549;SDS011;2798;42.716;23.256;2023-05-07T08:06:03;10.00;;;6.37;;
5549;SDS011;2798;42.716;23.256;2023-05-07T08:08:29;7.10;;;5.77;;
5549;SDS011;2798;42.716;23.256;2023-05-07T08:10:54;6.27;;;5.63;;
5549;SDS011;2798;42.716;23.256;2023-05-07T08:13:19;8.40;;;6.60;;
5549;SDS011;2798;42.716;23.256;2023-05-07T08:15:45;7.20;;;6.00;;
5549;SDS011;2798;42.716;23.256;2023-05-07T08:18:10;6.90;;;6.10;;
5549;SDS011;2798;42.716;23.256;2023-05-07T08:20:35;8.60;;;5.60;;
5549;SDS011;2798;42.716;23.256;2023-05-07T08:23:04;8.40;;;5.97;;
5549;SDS011;2798;42.716;23.256;2023-05-07T08:25:32;8.47;;;6.57;;
5549;SDS011;2798;42.716;23.256;2023-05-07T08:27:57;14.50;;;7.47;;
5549;SDS011;2798;42.716;23.256;2023-05-07T08:30:22;9.93;;;7.27;;
5549;SDS011;2798;42.716;23.256;2023-05-07T08:32:48;9.77;;;6.50;;
5549;SDS011;2798;42.716;23.256;2023-05-07T08:35:13;8.00;;;6.00;;
5549;SDS011;2798;42.716;23.256;2023-05-07T08:37:38;6.40;;;5.80;;
5549;SDS011;2798;42.716;23.256;2023-05-07T08:40:04;7.60;;;6.43;;
5549;SDS011;2798;42.716;23.256;2023-05-07T08:42:29;8.47;;;5.60;;
5549;SDS011;2798;42.716;23.256;2023-05-07T08:44:56;7.10;;;5.70;;
5549;SDS011;2798;42.716;23.256;2023-05-07T08:47:22;6.67;;;5.77;;
5549;SDS011;2798;42.716;23.256;2023-05-07T08:49:47;7.47;;;5.20;;
5549;SDS011;2798;42.716;23.256;2023-05-07T08:52:13;8.07;;;5.70;;
5549;SDS011;2798;42.716;23.256;2023-05-07T08:54:38;9.03;;;4.90;;
5549;SDS011;2798;42.716;23.256;2023-05-07T08:57:04;8.47;;;5.00;;
5549;SDS011;2798;42.716;23.256;2023-05-07T08:59:29;6.70;;;5.50;;
5549;SDS011;2798;42.716;23.256;2023-05-07T09:01:55;6.00;;;5.40;;
5549;SDS011;2798;42.716;23.256;2023-05-07T09:04:20;7.47;;;5.07;;
5549;SDS011;2798;42.716;23.256;2023-05-07T09:06:45;6.23;;;4.63;;
5549;SDS011;2798;42.716;23.256;2023-05-07T09:09:14;7.50;;;5.10;;
5549;SDS011;2798;42.716;23.256;2023-05-07T09:11:39;5.23;;;4.50;;
5549;SDS011;2798;42.716;23.256;2023-05-07T09:14:05;5.10;;;4.60;;
5549;SDS011;2798;42.716;23.256;2023-05-07T09:16:30;5.30;;;4.30;;
5549;SDS011;2798;42.716;23.256;2023-05-07T09:18:56;4.63;;;4.10;;
5549;SDS011;2798;42.716;23.256;2023-05-07T09:21:22;5.87;;;5.00;;
5549;SDS011;2798;42.716;23.256;2023-05-07T09:23:49;5.80;;;4.30;;
5549;SDS011;2798;42.716;23.256;2023-05-07T09:26:14;5.93;;;4.87;;
5549;SDS011;2798;42.716;23.256;2023-05-07T09:28:40;8.03;;;4.20;;
5549;SDS011;2798;42.716;23.256;2023-05-07T09:31:06;6.53;;;4.30;;
5549;SDS011;2798;42.716;23.256;2023-05-07T09:33:31;6.20;;;4.23;;
5549;SDS011;2798;42.716;23.256;2023-05-07T09:35:56;7.00;;;4.17;;
5549;SDS011;2798;42.716;23.256;2023-05-07T09:38:22;8.47;;;4.27;;
5549;SDS011;2798;42.716;23.256;2023-05-07T09:40:47;4.20;;;3.80;;
5549;SDS011;2798;42.716;23.256;2023-05-07T09:43:26;4.93;;;3.80;;
5549;SDS011;2798;42.716;23.256;2023-05-07T09:45:51;6.20;;;4.47;;
5549;SDS011;2798;42.716;23.256;2023-05-07T09:48:16;5.40;;;3.77;;
5549;SDS011;2798;42.716;23.256;2023-05-07T09:50:48;7.20;;;4.40;;
5549;SDS011;2798;42.716;23.256;2023-05-07T09:53:13;4.27;;;3.87;;
5549;SDS011;2798;42.716;23.256;2023-05-07T09:55:39;8.70;;;3.60;;
5549;SDS011;2798;42.716;23.256;2023-05-07T09:58:05;4.20;;;3.60;;
5549;SDS011;2798;42.716;23.256;2023-05-07T10:00:32;6.37;;;4.00;;
5549;SDS011;2798;42.716;23.256;2023-05-07T10:02:57;10.50;;;3.90;;
5549;SDS011;2798;42.716;23.256;2023-05-07T10:05:23;11.30;;;3.43;;
5549;SDS011;2798;42.716;23.256;2023-05-07T10:07:49;6.67;;;3.73;;
5549;SDS011;2798;42.716;23.256;2023-05-07T10:10:15;10.80;;;3.70;;
5549;SDS011;2798;42.716;23.256;2023-05-07T10:12:41;4.23;;;3.43;;
5549;SDS011;2798;42.716;23.256;2023-05-07T10:15:07;3.27;;;2.90;;
5549;SDS011;2798;42.716;23.256;2023-05-07T10:17:41;4.60;;;2.63;;
5549;SDS011;2798;42.716;23.256;2023-05-07T10:20:07;5.00;;;3.37;;
5549;SDS011;2798;42.716;23.256;2023-05-07T10:22:33;5.50;;;3.53;;
5549;SDS011;2798;42.716;23.256;2023-05-07T10:24:59;3.30;;;3.00;;
5549;SDS011;2798;42.716;23.256;2023-05-07T10:27:27;2.93;;;2.73;;
5549;SDS011;2798;42.716;23.256;2023-05-07T10:32:48;3.50;;;2.53;;
5549;SDS011;2798;42.716;23.256;2023-05-07T10:35:22;7.77;;;3.53;;
5549;SDS011;2798;42.716;23.256;2023-05-07T10:37:50;3.07;;;2.80;;
5549;SDS011;2798;42.716;23.256;2023-05-07T10:40:15;3.20;;;2.90;;
5549;SDS011;2798;42.716;23.256;2023-05-07T10:43:01;3.50;;;2.57;;
5549;SDS011;2798;42.716;23.256;2023-05-07T10:45:27;3.67;;;3.03;;
5549;SDS011;2798;42.716;23.256;2023-05-07T10:50:30;7.80;;;2.37;;
5549;SDS011;2798;42.716;23.256;2023-05-07T10:58:36;2.77;;;2.57;;
5549;SDS011;2798;42.716;23.256;2023-05-07T11:01:02;6.07;;;3.10;;
5549;SDS011;2798;42.716;23.256;2023-05-07T11:03:28;3.37;;;2.90;;
5549;SDS011;2798;42.716;23.256;2023-05-07T11:06:13;6.00;;;2.70;;
5549;SDS011;2798;42.716;23.256;2023-05-07T11:09:11;3.10;;;2.80;;
5549;SDS011;2798;42.716;23.256;2023-05-07T11:11:45;2.43;;;2.20;;
5549;SDS011;2798;42.716;23.256;2023-05-07T11:14:12;4.07;;;2.50;;
5549;SDS011;2798;42.716;23.256;2023-05-07T11:16:37;3.23;;;2.23;;
5549;SDS011;2798;42.716;23.256;2023-05-07T11:19:03;4.43;;;2.77;;
5549;SDS011;2798;42.716;23.256;2023-05-07T11:23:57;3.50;;;2.73;;
5549;SDS011;2798;42.716;23.256;2023-05-07T11:26:22;4.77;;;2.60;;
5549;SDS011;2798;42.716;23.256;2023-05-07T11:28:48;3.07;;;2.80;;
5549;SDS011;2798;42.716;23.256;2023-05-07T11:31:13;3.03;;;2.83;;
5549;SDS011;2798;42.716;23.256;2023-05-07T11:33:39;4.83;;;2.73;;
5549;SDS011;2798;42.716;23.256;2023-05-07T11:36:05;8.00;;;2.70;;
5549;SDS011;2798;42.716;23.256;2023-05-07T11:38:36;3.67;;;2.80;;
5549;SDS011;2798;42.716;23.256;2023-05-07T11:41:02;9.10;;;3.27;;
5549;SDS011;2798;42.716;23.256;2023-05-07T11:43:29;2.70;;;2.50;;
5549;SDS011;2798;42.716;23.256;2023-05-07T11:45:55;3.50;;;2.90;;
5549;SDS011;2798;42.716;23.256;2023-05-07T11:48:29;2.87;;;2.67;;
5549;SDS011;2798;42.716;23.256;2023-05-07T11:53:26;2.73;;;2.33;;
5549;SDS011;2798;42.716;23.256;2023-05-07T11:55:55;2.73;;;2.47;;
5549;SDS011;2798;42.716;23.256;2023-05-07T11:58:21;2.90;;;2.60;;
5549;SDS011;2798;42.716;23.256;2023-05-07T12:00:50;3.10;;;2.80;;
5549;SDS011;2798;42.716;23.256;2023-05-07T12:03:15;2.97;;;2.70;;
5549;SDS011;2798;42.716;23.256;2023-05-07T12:05:41;2.50;;;2.30;;
5549;SDS011;2798;42.716;23.256;2023-05-07T12:08:07;2.80;;;2.60;;
5549;SDS011;2798;42.716;23.256;2023-05-07T12:10:32;3.07;;;2.20;;
5549;SDS011;2798;42.716;23.256;2023-05-07T12:12:57;2.60;;;2.20;;
5549;SDS011;2798;42.716;23.256;2023-05-07T12:15:22;4.63;;;2.30;;
5549;SDS011;2798;42.716;23.256;2023-05-07T12:17:48;3.33;;;2.40;;
5549;SDS011;2798;42.716;23.256;2023-05-07T12:20:13;2.00;;;1.80;;
5549;SDS011;2798;42.716;23.256;2023-05-07T12:22:39;3.10;;;2.20;;
5549;SDS011;2798;42.716;23.256;2023-05-07T12:25:05;2.70;;;2.10;;
5549;SDS011;2798;42.716;23.256;2023-05-07T12:27:31;2.27;;;2.07;;
5549;SDS011;2798;42.716;23.256;2023-05-07T12:29:57;3.33;;;2.77;;
5549;SDS011;2798;42.716;23.256;2023-05-07T12:32:22;3.10;;;2.70;;
5549;SDS011;2798;42.716;23.256;2023-05-07T12:34:50;2.83;;;2.63;;
5549;SDS011;2798;42.716;23.256;2023-05-07T12:37:16;2.20;;;2.00;;
5549;SDS011;2798;42.716;23.256;2023-05-07T12:39:47;4.93;;;2.77;;
5549;SDS011;2798;42.716;23.256;2023-05-07T12:42:14;3.23;;;2.73;;
5549;SDS011;2798;42.716;23.256;2023-05-07T12:44:40;2.80;;;2.60;;
5549;SDS011;2798;42.716;23.256;2023-05-07T12:47:05;3.63;;;2.20;;
5549;SDS011;2798;42.716;23.256;2023-05-07T12:49:30;2.67;;;2.47;;
5549;SDS011;2798;42.716;23.256;2023-05-07T12:51:56;3.70;;;2.93;;
5549;SDS011;2798;42.716;23.256;2023-05-07T12:54:31;3.00;;;2.63;;
5549;SDS011;2798;42.716;23.256;2023-05-07T12:57:03;3.20;;;2.40;;
5549;SDS011;2798;42.716;23.256;2023-05-07T12:59:47;3.13;;;2.50;;
5549;SDS011;2798;42.716;23.256;2023-05-07T13:02:12;2.50;;;2.30;;
5549;SDS011;2798;42.716;23.256;2023-05-07T13:04:38;3.60;;;2.23;;
5549;SDS011;2798;42.716;23.256;2023-05-07T13:07:03;3.77;;;2.83;;
5549;SDS011;2798;42.716;23.256;2023-05-07T13:09:28;2.70;;;2.50;;
5549;SDS011;2798;42.716;23.256;2023-05-07T13:11:54;5.20;;;2.70;;
5549;SDS011;2798;42.716;23.256;2023-05-07T13:14:19;4.77;;;3.00;;
5549;SDS011;2798;42.716;23.256;2023-05-07T13:16:46;5.97;;;2.93;;
5549;SDS011;2798;42.716;23.256;2023-05-07T13:19:11;3.50;;;2.50;;
5549;SDS011;2798;42.716;23.256;2023-05-07T13:21:36;2.57;;;2.23;;
5549;SDS011;2798;42.716;23.256;2023-05-07T13:24:02;2.47;;;2.10;;
5549;SDS011;2798;42.716;23.256;2023-05-07T13:26:27;2.70;;;2.50;;
5549;SDS011;2798;42.716;23.256;2023-05-07T13:28:53;3.10;;;2.90;;
5549;SDS011;2798;42.716;23.256;2023-05-07T13:31:18;5.90;;;2.60;;
5549;SDS011;2798;42.716;23.256;2023-05-07T13:33:45;2.67;;;2.47;;
5549;SDS011;2798;42.716;23.256;2023-05-07T13:36:11;2.90;;;2.60;;
5549;SDS011;2798;42.716;23.256;2023-05-07T13:38:36;3.50;;;2.20;;
5549;SDS011;2798;42.716;23.256;2023-05-07T13:41:23;2.93;;;2.10;;
5549;SDS011;2798;42.716;23.256;2023-05-07T13:43:48;6.83;;;2.80;;
5549;SDS011;2798;42.716;23.256;2023-05-07T13:46:13;2.63;;;2.43;;
5549;SDS011;2798;42.716;23.256;2023-05-07T13:48:40;4.40;;;2.30;;
5549;SDS011;2798;42.716;23.256;2023-05-07T13:51:06;3.60;;;2.80;;
5549;SDS011;2798;42.716;23.256;2023-05-07T13:56:20;3.73;;;2.67;;
5549;SDS011;2798;42.716;23.256;2023-05-07T14:01:40;3.40;;;2.60;;
5549;SDS011;2798;42.716;23.256;2023-05-07T14:04:06;6.83;;;2.53;;
5549;SDS011;2798;42.716;23.256;2023-05-07T14:06:34;4.40;;;2.20;;
5549;SDS011;2798;42.716;23.256;2023-05-07T14:08:59;2.70;;;2.40;;
5549;SDS011;2798;42.716;23.256;2023-05-07T14:11:25;3.53;;;2.50;;
5549;SDS011;2798;42.716;23.256;2023-05-07T14:13:50;2.87;;;2.67;;
5549;SDS011;2798;42.716;23.256;2023-05-07T14:16:15;4.03;;;3.37;;
5549;SDS011;2798;42.716;23.256;2023-05-07T14:18:40;4.00;;;3.43;;
5549;SDS011;2798;42.716;23.256;2023-05-07T14:21:07;6.17;;;3.40;;
5549;SDS011;2798;42.716;23.256;2023-05-07T14:23:35;2.83;;;2.63;;
5549;SDS011;2798;42.716;23.256;2023-05-07T14:26:00;3.73;;;2.70;;
5549;SDS011;2798;42.716;23.256;2023-05-07T14:28:25;4.20;;;2.80;;
5549;SDS011;2798;42.716;23.256;2023-05-07T14:30:50;4.03;;;2.80;;
5549;SDS011;2798;42.716;23.256;2023-05-07T14:33:16;2.53;;;2.33;;
5549;SDS011;2798;42.716;23.256;2023-05-07T14:35:42;4.13;;;2.60;;
5549;SDS011;2798;42.716;23.256;2023-05-07T14:38:12;4.63;;;2.50;;
5549;SDS011;2798;42.716;23.256;2023-05-07T14:40:37;3.53;;;2.37;;
5549;SDS011;2798;42.716;23.256;2023-05-07T14:43:02;4.10;;;2.90;;
5549;SDS011;2798;42.716;23.256;2023-05-07T14:45:28;4.77;;;2.70;;
5549;SDS011;2798;42.716;23.256;2023-05-07T14:47:53;3.70;;;2.50;;
5549;SDS011;2798;42.716;23.256;2023-05-07T14:50:18;4.30;;;2.57;;
5549;SDS011;2798;42.716;23.256;2023-05-07T14:52:44;4.77;;;2.60;;
5549;SDS011;2798;42.716;23.256;2023-05-07T14:55:09;2.53;;;2.33;;
5549;SDS011;2798;42.716;23.256;2023-05-07T14:57:34;4.50;;;3.00;;
5549;SDS011;2798;42.716;23.256;2023-05-07T15:00:00;6.47;;;2.50;;
5549;SDS011;2798;42.716;23.256;2023-05-07T15:02:26;2.40;;;2.20;;
5549;SDS011;2798;42.716;23.256;2023-05-07T15:04:51;3.20;;;2.87;;
5549;SDS011;2798;42.716;23.256;2023-05-07T15:07:16;2.83;;;2.33;;
5549;SDS011;2798;42.716;23.256;2023-05-07T15:09:42;5.73;;;2.50;;
5549;SDS011;2798;42.716;23.256;2023-05-07T15:12:07;2.50;;;2.30;;
5549;SDS011;2798;42.716;23.256;2023-05-07T15:14:33;2.80;;;2.60;;
5549;SDS011;2798;42.716;23.256;2023-05-07T15:16:59;3.53;;;2.40;;
5549;SDS011;2798;42.716;23.256;2023-05-07T15:19:24;5.03;;;2.70;;
5549;SDS011;2798;42.716;23.256;2023-05-07T15:21:54;4.37;;;2.40;;